sensor_id;sensor_type;location;lat;lon;timestamp;P1;durP1;ratioP1;P2;durP2;ratioP2
56161;SDS011;42045;52.986;6.014;2023-05-19T00:00:55;16.60;;;6.75;;
56161;SDS011;42045;52.986;6.014;2023-05-19T00:03:21;15.65;;;7.55;;
56161;SDS011;42045;52.986;6.014;2023-05-19T00:05:48;17.05;;;7.82;;
56161;SDS011;42045;52.986;6.014;2023-05-19T00:08:17;15.38;;;8.02;;
56161;SDS011;42045;52.986;6.014;2023-05-19T00:10:44;17.55;;;8.32;;
56161;SDS011;42045;52.986;6.014;2023-05-19T00:13:10;12.98;;;7.40;;
56161;SDS011;42045;52.986;6.014;2023-05-19T00:15:36;12.05;;;6.45;;
56161;SDS011;42045;52.986;6.014;2023-05-19T00:18:02;15.00;;;7.65;;
56161;SDS011;42045;52.986;6.014;2023-05-19T00:20:28;12.38;;;7.28;;
56161;SDS011;42045;52.986;6.014;2023-05-19T00:22:54;16.80;;;7.43;;
56161;SDS011;42045;52.986;6.014;2023-05-19T00:25:19;19.50;;;7.82;;
56161;SDS011;42045;52.986;6.014;2023-05-19T00:27:45;16.98;;;7.47;;
56161;SDS011;42045;52.986;6.014;2023-05-19T00:30:11;16.38;;;7.30;;
56161;SDS011;42045;52.986;6.014;2023-05-19T00:32:37;14.45;;;7.05;;
56161;SDS011;42045;52.986;6.014;2023-05-19T00:35:03;16.17;;;7.43;;
56161;SDS011;42045;52.986;6.014;2023-05-19T00:37:28;17.17;;;7.60;;
56161;SDS011;42045;52.986;6.014;2023-05-19T00:39:54;16.92;;;7.88;;
56161;SDS011;42045;52.986;6.014;2023-05-19T00:42:20;12.60;;;7.40;;
56161;SDS011;42045;52.986;6.014;2023-05-19T00:44:45;13.18;;;7.85;;
56161;SDS011;42045;52.986;6.014;2023-05-19T00:47:11;17.60;;;9.05;;
56161;SDS011;42045;52.986;6.014;2023-05-19T00:49:36;14.20;;;8.13;;
56161;SDS011;42045;52.986;6.014;2023-05-19T00:52:02;14.02;;;8.30;;
56161;SDS011;42045;52.986;6.014;2023-05-19T00:54:31;15.68;;;8.38;;
56161;SDS011;42045;52.986;6.014;2023-05-19T00:57:00;13.48;;;7.88;;
56161;SDS011;42045;52.986;6.014;2023-05-19T00:59:26;19.25;;;7.75;;
56161;SDS011;42045;52.986;6.014;2023-05-19T01:01:52;17.50;;;8.77;;
56161;SDS011;42045;52.986;6.014;2023-05-19T01:04:18;20.38;;;10.05;;
56161;SDS011;42045;52.986;6.014;2023-05-19T01:06:46;11.93;;;7.55;;
56161;SDS011;42045;52.986;6.014;2023-05-19T01:09:13;17.35;;;7.50;;
56161;SDS011;42045;52.986;6.014;2023-05-19T01:11:40;23.17;;;9.05;;
56161;SDS011;42045;52.986;6.014;2023-05-19T01:14:06;16.42;;;8.48;;
56161;SDS011;42045;52.986;6.014;2023-05-19T01:28:36;15.88;;;8.32;;
56161;SDS011;42045;52.986;6.014;2023-05-19T01:31:31;17.70;;;9.00;;
56161;SDS011;42045;52.986;6.014;2023-05-19T01:33:59;14.52;;;9.52;;
56161;SDS011;42045;52.986;6.014;2023-05-19T01:36:25;18.58;;;10.57;;
56161;SDS011;42045;52.986;6.014;2023-05-19T01:38:53;20.95;;;12.77;;
56161;SDS011;42045;52.986;6.014;2023-05-19T01:41:21;20.25;;;13.90;;
56161;SDS011;42045;52.986;6.014;2023-05-19T01:43:48;21.17;;;14.43;;
56161;SDS011;42045;52.986;6.014;2023-05-19T01:46:15;24.45;;;15.98;;
56161;SDS011;42045;52.986;6.014;2023-05-19T01:48:42;21.92;;;12.95;;
56161;SDS011;42045;52.986;6.014;2023-05-19T01:51:09;19.85;;;10.00;;
56161;SDS011;42045;52.986;6.014;2023-05-19T01:53:35;20.38;;;9.63;;
56161;SDS011;42045;52.986;6.014;2023-05-19T01:56:01;15.65;;;8.55;;
56161;SDS011;42045;52.986;6.014;2023-05-19T02:01:10;22.92;;;8.77;;
56161;SDS011;42045;52.986;6.014;2023-05-19T02:09:25;18.55;;;8.68;;
56161;SDS011;42045;52.986;6.014;2023-05-19T02:12:10;19.35;;;9.30;;
56161;SDS011;42045;52.986;6.014;2023-05-19T02:17:37;16.05;;;8.48;;
56161;SDS011;42045;52.986;6.014;2023-05-19T02:20:06;17.23;;;9.13;;
56161;SDS011;42045;52.986;6.014;2023-05-19T02:22:33;16.15;;;9.30;;
56161;SDS011;42045;52.986;6.014;2023-05-19T02:24:59;16.27;;;9.57;;
56161;SDS011;42045;52.986;6.014;2023-05-19T02:27:25;16.15;;;9.60;;
56161;SDS011;42045;52.986;6.014;2023-05-19T02:29:51;24.63;;;11.30;;
56161;SDS011;42045;52.986;6.014;2023-05-19T02:32:17;17.20;;;9.45;;
56161;SDS011;42045;52.986;6.014;2023-05-19T02:34:43;14.30;;;8.68;;
56161;SDS011;42045;52.986;6.014;2023-05-19T02:37:11;16.42;;;9.18;;
56161;SDS011;42045;52.986;6.014;2023-05-19T02:39:37;18.10;;;8.63;;
56161;SDS011;42045;52.986;6.014;2023-05-19T02:42:03;21.27;;;9.40;;
56161;SDS011;42045;52.986;6.014;2023-05-19T02:44:29;15.32;;;8.35;;
56161;SDS011;42045;52.986;6.014;2023-05-19T02:46:55;17.67;;;9.35;;
56161;SDS011;42045;52.986;6.014;2023-05-19T02:49:20;16.90;;;8.68;;
56161;SDS011;42045;52.986;6.014;2023-05-19T02:51:46;17.88;;;10.05;;
56161;SDS011;42045;52.986;6.014;2023-05-19T02:54:11;17.05;;;9.55;;
56161;SDS011;42045;52.986;6.014;2023-05-19T02:56:37;17.05;;;8.90;;
56161;SDS011;42045;52.986;6.014;2023-05-19T02:59:03;16.27;;;9.07;;
56161;SDS011;42045;52.986;6.014;2023-05-19T03:01:28;17.60;;;9.55;;
56161;SDS011;42045;52.986;6.014;2023-05-19T03:03:56;13.55;;;9.18;;
56161;SDS011;42045;52.986;6.014;2023-05-19T03:06:22;15.98;;;8.90;;
56161;SDS011;42045;52.986;6.014;2023-05-19T03:08:48;13.57;;;8.20;;
56161;SDS011;42045;52.986;6.014;2023-05-19T03:11:14;13.32;;;8.38;;
56161;SDS011;42045;52.986;6.014;2023-05-19T03:13:40;16.67;;;8.65;;
56161;SDS011;42045;52.986;6.014;2023-05-19T03:16:06;19.40;;;8.70;;
56161;SDS011;42045;52.986;6.014;2023-05-19T03:18:32;15.27;;;8.15;;
56161;SDS011;42045;52.986;6.014;2023-05-19T03:20:58;12.23;;;8.60;;
56161;SDS011;42045;52.986;6.014;2023-05-19T03:23:24;15.80;;;8.65;;
56161;SDS011;42045;52.986;6.014;2023-05-19T03:25:50;16.98;;;9.13;;
56161;SDS011;42045;52.986;6.014;2023-05-19T03:28:18;14.30;;;8.48;;
56161;SDS011;42045;52.986;6.014;2023-05-19T03:30:44;10.57;;;8.30;;
56161;SDS011;42045;52.986;6.014;2023-05-19T03:33:10;19.13;;;8.40;;
56161;SDS011;42045;52.986;6.014;2023-05-19T03:35:35;15.30;;;8.07;;
56161;SDS011;42045;52.986;6.014;2023-05-19T03:38:01;14.20;;;8.07;;
56161;SDS011;42045;52.986;6.014;2023-05-19T03:40:27;17.42;;;8.23;;
56161;SDS011;42045;52.986;6.014;2023-05-19T03:42:52;18.58;;;8.63;;
56161;SDS011;42045;52.986;6.014;2023-05-19T03:45:18;14.90;;;8.75;;
56161;SDS011;42045;52.986;6.014;2023-05-19T03:47:45;21.27;;;8.60;;
56161;SDS011;42045;52.986;6.014;2023-05-19T03:50:11;16.58;;;8.30;;
56161;SDS011;42045;52.986;6.014;2023-05-19T03:52:38;17.10;;;8.15;;
56161;SDS011;42045;52.986;6.014;2023-05-19T03:55:04;15.48;;;8.02;;
56161;SDS011;42045;52.986;6.014;2023-05-19T03:57:31;11.70;;;6.80;;
56161;SDS011;42045;52.986;6.014;2023-05-19T03:59:57;14.07;;;6.75;;
56161;SDS011;42045;52.986;6.014;2023-05-19T04:02:23;14.32;;;8.18;;
56161;SDS011;42045;52.986;6.014;2023-05-19T04:04:49;11.68;;;7.72;;
56161;SDS011;42045;52.986;6.014;2023-05-19T04:07:15;13.60;;;7.60;;
56161;SDS011;42045;52.986;6.014;2023-05-19T04:09:41;14.43;;;7.35;;
56161;SDS011;42045;52.986;6.014;2023-05-19T04:12:07;9.82;;;7.68;;
56161;SDS011;42045;52.986;6.014;2023-05-19T04:14:32;11.82;;;6.55;;
56161;SDS011;42045;52.986;6.014;2023-05-19T04:16:58;13.95;;;6.70;;
56161;SDS011;42045;52.986;6.014;2023-05-19T04:19:24;13.65;;;6.78;;
56161;SDS011;42045;52.986;6.014;2023-05-19T04:21:50;12.50;;;6.70;;
56161;SDS011;42045;52.986;6.014;2023-05-19T04:24:15;12.75;;;6.60;;
56161;SDS011;42045;52.986;6.014;2023-05-19T04:26:41;16.55;;;6.90;;
56161;SDS011;42045;52.986;6.014;2023-05-19T04:29:10;10.27;;;6.03;;
56161;SDS011;42045;52.986;6.014;2023-05-19T04:31:38;10.32;;;5.47;;
56161;SDS011;42045;52.986;6.014;2023-05-19T04:34:05;9.75;;;5.40;;
56161;SDS011;42045;52.986;6.014;2023-05-19T04:36:32;11.27;;;6.50;;
56161;SDS011;42045;52.986;6.014;2023-05-19T04:38:58;11.40;;;5.82;;
56161;SDS011;42045;52.986;6.014;2023-05-19T04:41:27;10.77;;;5.30;;
56161;SDS011;42045;52.986;6.014;2023-05-19T04:43:53;14.02;;;6.38;;
56161;SDS011;42045;52.986;6.014;2023-05-19T04:46:21;12.13;;;6.22;;
56161;SDS011;42045;52.986;6.014;2023-05-19T04:48:48;11.45;;;5.13;;
56161;SDS011;42045;52.986;6.014;2023-05-19T04:51:14;11.35;;;5.28;;
56161;SDS011;42045;52.986;6.014;2023-05-19T04:53:41;13.20;;;5.45;;
56161;SDS011;42045;52.986;6.014;2023-05-19T04:56:08;11.00;;;4.93;;
56161;SDS011;42045;52.986;6.014;2023-05-19T04:58:34;11.75;;;5.07;;
56161;SDS011;42045;52.986;6.014;2023-05-19T05:00:59;10.02;;;4.85;;
56161;SDS011;42045;52.986;6.014;2023-05-19T05:03:25;10.75;;;5.82;;
56161;SDS011;42045;52.986;6.014;2023-05-19T05:05:51;8.50;;;4.70;;
56161;SDS011;42045;52.986;6.014;2023-05-19T05:08:17;10.73;;;5.40;;
56161;SDS011;42045;52.986;6.014;2023-05-19T05:10:50;8.13;;;4.47;;
56161;SDS011;42045;52.986;6.014;2023-05-19T05:13:17;10.05;;;5.15;;
56161;SDS011;42045;52.986;6.014;2023-05-19T05:15:46;8.93;;;5.05;;
56161;SDS011;42045;52.986;6.014;2023-05-19T05:18:12;8.13;;;4.22;;
56161;SDS011;42045;52.986;6.014;2023-05-19T05:20:39;11.25;;;5.07;;
56161;SDS011;42045;52.986;6.014;2023-05-19T05:23:06;10.90;;;5.40;;
56161;SDS011;42045;52.986;6.014;2023-05-19T05:25:33;9.85;;;4.55;;
56161;SDS011;42045;52.986;6.014;2023-05-19T05:28:00;7.65;;;4.53;;
56161;SDS011;42045;52.986;6.014;2023-05-19T05:30:29;12.38;;;5.60;;
56161;SDS011;42045;52.986;6.014;2023-05-19T05:32:55;9.05;;;4.85;;
56161;SDS011;42045;52.986;6.014;2023-05-19T05:35:21;11.73;;;5.05;;
56161;SDS011;42045;52.986;6.014;2023-05-19T05:37:48;8.85;;;4.45;;
56161;SDS011;42045;52.986;6.014;2023-05-19T05:40:14;11.02;;;5.22;;
56161;SDS011;42045;52.986;6.014;2023-05-19T05:42:40;10.35;;;4.63;;
56161;SDS011;42045;52.986;6.014;2023-05-19T05:45:06;8.23;;;4.93;;
56161;SDS011;42045;52.986;6.014;2023-05-19T05:47:32;8.30;;;4.72;;
56161;SDS011;42045;52.986;6.014;2023-05-19T05:49:58;9.35;;;5.45;;
56161;SDS011;42045;52.986;6.014;2023-05-19T05:52:25;12.90;;;4.93;;
56161;SDS011;42045;52.986;6.014;2023-05-19T05:54:54;10.43;;;5.28;;
56161;SDS011;42045;52.986;6.014;2023-05-19T05:57:20;9.27;;;4.93;;
56161;SDS011;42045;52.986;6.014;2023-05-19T05:59:46;10.43;;;5.20;;
56161;SDS011;42045;52.986;6.014;2023-05-19T06:02:11;10.18;;;4.85;;
56161;SDS011;42045;52.986;6.014;2023-05-19T06:04:37;8.85;;;4.93;;
56161;SDS011;42045;52.986;6.014;2023-05-19T06:07:03;9.23;;;4.70;;
56161;SDS011;42045;52.986;6.014;2023-05-19T06:09:29;8.68;;;4.75;;
56161;SDS011;42045;52.986;6.014;2023-05-19T06:11:56;8.85;;;4.95;;
56161;SDS011;42045;52.986;6.014;2023-05-19T06:14:23;9.85;;;4.75;;
56161;SDS011;42045;52.986;6.014;2023-05-19T06:16:48;9.23;;;4.88;;
56161;SDS011;42045;52.986;6.014;2023-05-19T06:19:14;9.75;;;5.60;;
56161;SDS011;42045;52.986;6.014;2023-05-19T06:21:40;10.40;;;4.82;;
56161;SDS011;42045;52.986;6.014;2023-05-19T06:24:07;10.15;;;5.03;;
56161;SDS011;42045;52.986;6.014;2023-05-19T06:26:32;10.90;;;4.93;;
56161;SDS011;42045;52.986;6.014;2023-05-19T06:28:58;8.50;;;4.30;;
56161;SDS011;42045;52.986;6.014;2023-05-19T06:31:23;8.95;;;4.60;;
56161;SDS011;42045;52.986;6.014;2023-05-19T06:33:50;9.52;;;4.85;;
56161;SDS011;42045;52.986;6.014;2023-05-19T06:36:17;11.55;;;5.00;;
56161;SDS011;42045;52.986;6.014;2023-05-19T06:38:43;10.35;;;4.68;;
56161;SDS011;42045;52.986;6.014;2023-05-19T06:41:09;17.00;;;4.82;;
56161;SDS011;42045;52.986;6.014;2023-05-19T06:43:34;7.50;;;4.40;;
56161;SDS011;42045;52.986;6.014;2023-05-19T06:46:00;9.50;;;4.93;;
56161;SDS011;42045;52.986;6.014;2023-05-19T06:48:26;10.85;;;5.13;;
56161;SDS011;42045;52.986;6.014;2023-05-19T06:50:51;9.73;;;4.88;;
56161;SDS011;42045;52.986;6.014;2023-05-19T06:53:17;12.15;;;4.78;;
56161;SDS011;42045;52.986;6.014;2023-05-19T06:55:44;14.25;;;5.00;;
56161;SDS011;42045;52.986;6.014;2023-05-19T06:58:10;8.10;;;4.20;;
56161;SDS011;42045;52.986;6.014;2023-05-19T07:00:36;11.93;;;5.25;;
56161;SDS011;42045;52.986;6.014;2023-05-19T07:03:01;9.32;;;4.90;;
56161;SDS011;42045;52.986;6.014;2023-05-19T07:05:27;6.15;;;3.92;;
56161;SDS011;42045;52.986;6.014;2023-05-19T07:07:53;10.05;;;5.05;;
56161;SDS011;42045;52.986;6.014;2023-05-19T07:10:18;12.00;;;4.97;;
56161;SDS011;42045;52.986;6.014;2023-05-19T07:12:46;8.73;;;4.45;;
56161;SDS011;42045;52.986;6.014;2023-05-19T07:15:11;11.27;;;4.30;;
56161;SDS011;42045;52.986;6.014;2023-05-19T07:17:37;10.23;;;4.65;;
56161;SDS011;42045;52.986;6.014;2023-05-19T07:20:03;11.50;;;5.15;;
56161;SDS011;42045;52.986;6.014;2023-05-19T07:22:34;11.27;;;4.57;;
56161;SDS011;42045;52.986;6.014;2023-05-19T07:25:00;8.63;;;4.50;;
56161;SDS011;42045;52.986;6.014;2023-05-19T07:27:26;8.85;;;4.43;;
56161;SDS011;42045;52.986;6.014;2023-05-19T07:29:51;7.90;;;4.32;;
56161;SDS011;42045;52.986;6.014;2023-05-19T07:32:18;7.03;;;4.50;;
56161;SDS011;42045;52.986;6.014;2023-05-19T07:34:43;11.70;;;5.15;;
56161;SDS011;42045;52.986;6.014;2023-05-19T07:37:09;12.60;;;5.25;;
56161;SDS011;42045;52.986;6.014;2023-05-19T07:39:35;10.68;;;4.35;;
56161;SDS011;42045;52.986;6.014;2023-05-19T07:42:01;10.15;;;4.40;;
56161;SDS011;42045;52.986;6.014;2023-05-19T07:44:26;13.23;;;4.40;;
56161;SDS011;42045;52.986;6.014;2023-05-19T07:46:55;8.45;;;3.80;;
56161;SDS011;42045;52.986;6.014;2023-05-19T07:49:21;9.13;;;4.10;;
56161;SDS011;42045;52.986;6.014;2023-05-19T07:51:47;10.02;;;3.90;;
56161;SDS011;42045;52.986;6.014;2023-05-19T07:54:12;11.43;;;4.00;;
56161;SDS011;42045;52.986;6.014;2023-05-19T07:56:38;10.10;;;4.15;;
56161;SDS011;42045;52.986;6.014;2023-05-19T07:59:04;12.45;;;3.97;;
56161;SDS011;42045;52.986;6.014;2023-05-19T08:01:32;12.30;;;4.43;;
56161;SDS011;42045;52.986;6.014;2023-05-19T08:03:58;13.30;;;4.05;;
56161;SDS011;42045;52.986;6.014;2023-05-19T08:06:23;8.88;;;3.45;;
56161;SDS011;42045;52.986;6.014;2023-05-19T08:08:49;10.48;;;3.58;;
56161;SDS011;42045;52.986;6.014;2023-05-19T08:11:16;12.70;;;4.90;;
56161;SDS011;42045;52.986;6.014;2023-05-19T08:13:41;8.57;;;3.50;;
56161;SDS011;42045;52.986;6.014;2023-05-19T08:16:07;10.55;;;3.50;;
56161;SDS011;42045;52.986;6.014;2023-05-19T08:18:33;12.05;;;4.28;;
56161;SDS011;42045;52.986;6.014;2023-05-19T08:20:58;9.35;;;3.85;;
56161;SDS011;42045;52.986;6.014;2023-05-19T08:23:25;10.63;;;3.70;;
56161;SDS011;42045;52.986;6.014;2023-05-19T08:25:51;9.65;;;4.18;;
56161;SDS011;42045;52.986;6.014;2023-05-19T08:28:16;9.98;;;4.18;;
56161;SDS011;42045;52.986;6.014;2023-05-19T08:30:42;9.23;;;4.20;;
56161;SDS011;42045;52.986;6.014;2023-05-19T08:33:08;10.35;;;4.38;;
56161;SDS011;42045;52.986;6.014;2023-05-19T08:35:33;9.15;;;3.72;;
56161;SDS011;42045;52.986;6.014;2023-05-19T08:37:59;11.05;;;3.67;;
56161;SDS011;42045;52.986;6.014;2023-05-19T08:40:25;10.30;;;3.83;;
56161;SDS011;42045;52.986;6.014;2023-05-19T08:42:55;7.32;;;3.55;;
56161;SDS011;42045;52.986;6.014;2023-05-19T08:45:21;7.68;;;3.55;;
56161;SDS011;42045;52.986;6.014;2023-05-19T08:47:46;9.15;;;3.92;;
56161;SDS011;42045;52.986;6.014;2023-05-19T08:50:22;11.82;;;4.38;;
56161;SDS011;42045;52.986;6.014;2023-05-19T08:55:57;10.45;;;3.83;;
56161;SDS011;42045;52.986;6.014;2023-05-19T08:58:29;9.80;;;4.40;;
56161;SDS011;42045;52.986;6.014;2023-05-19T09:00:56;13.48;;;4.57;;
56161;SDS011;42045;52.986;6.014;2023-05-19T09:03:23;8.65;;;4.25;;
56161;SDS011;42045;52.986;6.014;2023-05-19T09:05:50;9.55;;;3.95;;
56161;SDS011;42045;52.986;6.014;2023-05-19T09:08:16;11.07;;;4.57;;
56161;SDS011;42045;52.986;6.014;2023-05-19T09:10:42;11.43;;;4.40;;
56161;SDS011;42045;52.986;6.014;2023-05-19T09:13:08;11.52;;;3.83;;
56161;SDS011;42045;52.986;6.014;2023-05-19T09:15:33;9.85;;;4.72;;
56161;SDS011;42045;52.986;6.014;2023-05-19T09:18:06;10.90;;;3.88;;
56161;SDS011;42045;52.986;6.014;2023-05-19T09:20:40;9.95;;;4.22;;
56161;SDS011;42045;52.986;6.014;2023-05-19T09:23:06;10.20;;;4.50;;
56161;SDS011;42045;52.986;6.014;2023-05-19T09:25:45;9.02;;;3.92;;
56161;SDS011;42045;52.986;6.014;2023-05-19T09:28:15;7.78;;;3.63;;
56161;SDS011;42045;52.986;6.014;2023-05-19T09:30:47;8.10;;;3.95;;
56161;SDS011;42045;52.986;6.014;2023-05-19T09:33:18;7.07;;;4.25;;
56161;SDS011;42045;52.986;6.014;2023-05-19T09:35:45;12.18;;;4.38;;
56161;SDS011;42045;52.986;6.014;2023-05-19T09:38:16;9.98;;;4.55;;
56161;SDS011;42045;52.986;6.014;2023-05-19T09:40:42;9.23;;;4.22;;
56161;SDS011;42045;52.986;6.014;2023-05-19T09:43:08;10.27;;;3.80;;
56161;SDS011;42045;52.986;6.014;2023-05-19T09:45:34;11.27;;;3.70;;
56161;SDS011;42045;52.986;6.014;2023-05-19T09:48:02;6.28;;;3.55;;
56161;SDS011;42045;52.986;6.014;2023-05-19T09:50:28;8.20;;;3.33;;
56161;SDS011;42045;52.986;6.014;2023-05-19T09:52:54;10.55;;;4.30;;
56161;SDS011;42045;52.986;6.014;2023-05-19T09:55:21;12.02;;;5.53;;
56161;SDS011;42045;52.986;6.014;2023-05-19T09:57:53;9.43;;;4.55;;
56161;SDS011;42045;52.986;6.014;2023-05-19T10:00:24;8.48;;;3.67;;
56161;SDS011;42045;52.986;6.014;2023-05-19T10:02:51;7.80;;;4.22;;
56161;SDS011;42045;52.986;6.014;2023-05-19T10:05:18;8.77;;;4.45;;
56161;SDS011;42045;52.986;6.014;2023-05-19T10:07:45;8.13;;;4.32;;
56161;SDS011;42045;52.986;6.014;2023-05-19T10:10:15;8.25;;;3.75;;
56161;SDS011;42045;52.986;6.014;2023-05-19T10:12:42;10.82;;;3.95;;
56161;SDS011;42045;52.986;6.014;2023-05-19T10:15:08;6.82;;;3.58;;
56161;SDS011;42045;52.986;6.014;2023-05-19T10:17:38;7.80;;;3.72;;
56161;SDS011;42045;52.986;6.014;2023-05-19T10:20:14;9.45;;;4.35;;
56161;SDS011;42045;52.986;6.014;2023-05-19T10:22:42;8.98;;;3.92;;
56161;SDS011;42045;52.986;6.014;2023-05-19T10:25:09;7.72;;;3.70;;
56161;SDS011;42045;52.986;6.014;2023-05-19T10:27:43;8.15;;;4.13;;
56161;SDS011;42045;52.986;6.014;2023-05-19T10:30:25;11.90;;;3.97;;
56161;SDS011;42045;52.986;6.014;2023-05-19T10:32:53;8.32;;;3.58;;
56161;SDS011;42045;52.986;6.014;2023-05-19T10:38:51;10.13;;;3.88;;
56161;SDS011;42045;52.986;6.014;2023-05-19T10:41:30;6.97;;;3.00;;
56161;SDS011;42045;52.986;6.014;2023-05-19T10:44:29;6.10;;;3.53;;
56161;SDS011;42045;52.986;6.014;2023-05-19T10:47:05;10.25;;;4.07;;
56161;SDS011;42045;52.986;6.014;2023-05-19T10:49:35;6.70;;;3.88;;
56161;SDS011;42045;52.986;6.014;2023-05-19T10:52:01;8.43;;;4.57;;
56161;SDS011;42045;52.986;6.014;2023-05-19T10:54:42;9.40;;;4.10;;
56161;SDS011;42045;52.986;6.014;2023-05-19T10:57:32;6.28;;;3.78;;
56161;SDS011;42045;52.986;6.014;2023-05-19T10:59:57;7.50;;;4.30;;
56161;SDS011;42045;52.986;6.014;2023-05-19T11:02:39;9.68;;;3.75;;
56161;SDS011;42045;52.986;6.014;2023-05-19T11:05:09;5.22;;;3.60;;
56161;SDS011;42045;52.986;6.014;2023-05-19T11:07:41;10.80;;;3.63;;
56161;SDS011;42045;52.986;6.014;2023-05-19T11:10:08;6.50;;;3.92;;
56161;SDS011;42045;52.986;6.014;2023-05-19T11:12:44;7.97;;;3.70;;
56161;SDS011;42045;52.986;6.014;2023-05-19T11:15:13;9.15;;;3.53;;
56161;SDS011;42045;52.986;6.014;2023-05-19T11:17:40;5.95;;;3.53;;
56161;SDS011;42045;52.986;6.014;2023-05-19T11:20:18;9.60;;;4.32;;
56161;SDS011;42045;52.986;6.014;2023-05-19T11:25:39;6.85;;;3.17;;
56161;SDS011;42045;52.986;6.014;2023-05-19T11:28:17;9.77;;;4.75;;
56161;SDS011;42045;52.986;6.014;2023-05-19T11:30:44;7.43;;;3.55;;
56161;SDS011;42045;52.986;6.014;2023-05-19T11:33:13;6.07;;;3.78;;
56161;SDS011;42045;52.986;6.014;2023-05-19T11:35:43;9.80;;;4.15;;
56161;SDS011;42045;52.986;6.014;2023-05-19T11:38:11;7.72;;;3.85;;
56161;SDS011;42045;52.986;6.014;2023-05-19T11:40:38;3.55;;;2.20;;
56161;SDS011;42045;52.986;6.014;2023-05-19T11:43:05;6.20;;;2.50;;
56161;SDS011;42045;52.986;6.014;2023-05-19T11:45:31;6.63;;;2.70;;
56161;SDS011;42045;52.986;6.014;2023-05-19T11:47:58;6.75;;;2.80;;
56161;SDS011;42045;52.986;6.014;2023-05-19T11:50:24;5.60;;;2.75;;
56161;SDS011;42045;52.986;6.014;2023-05-19T11:52:50;6.30;;;3.00;;
56161;SDS011;42045;52.986;6.014;2023-05-19T11:55:17;4.97;;;2.60;;
56161;SDS011;42045;52.986;6.014;2023-05-19T11:58:01;3.53;;;2.30;;
56161;SDS011;42045;52.986;6.014;2023-05-19T12:00:28;5.07;;;2.23;;
56161;SDS011;42045;52.986;6.014;2023-05-19T12:03:01;6.10;;;2.97;;
56161;SDS011;42045;52.986;6.014;2023-05-19T12:05:26;6.72;;;2.72;;
56161;SDS011;42045;52.986;6.014;2023-05-19T12:07:53;4.63;;;2.83;;
56161;SDS011;42045;52.986;6.014;2023-05-19T12:12:49;9.07;;;2.92;;
56161;SDS011;42045;52.986;6.014;2023-05-19T12:15:24;5.00;;;2.80;;
56161;SDS011;42045;52.986;6.014;2023-05-19T12:20:23;6.32;;;2.72;;
56161;SDS011;42045;52.986;6.014;2023-05-19T12:22:50;6.80;;;2.70;;
56161;SDS011;42045;52.986;6.014;2023-05-19T12:25:16;8.57;;;3.05;;
56161;SDS011;42045;52.986;6.014;2023-05-19T12:27:42;4.65;;;2.72;;
56161;SDS011;42045;52.986;6.014;2023-05-19T12:30:10;9.45;;;3.10;;
56161;SDS011;42045;52.986;6.014;2023-05-19T12:32:37;5.60;;;2.42;;
56161;SDS011;42045;52.986;6.014;2023-05-19T12:35:03;5.78;;;2.70;;
56161;SDS011;42045;52.986;6.014;2023-05-19T12:37:29;5.63;;;2.50;;
56161;SDS011;42045;52.986;6.014;2023-05-19T12:39:59;8.20;;;2.80;;
56161;SDS011;42045;52.986;6.014;2023-05-19T12:42:25;5.70;;;2.65;;
56161;SDS011;42045;52.986;6.014;2023-05-19T12:45:00;6.20;;;3.08;;
56161;SDS011;42045;52.986;6.014;2023-05-19T12:47:31;5.35;;;2.80;;
56161;SDS011;42045;52.986;6.014;2023-05-19T12:50:06;7.00;;;2.42;;
56161;SDS011;42045;52.986;6.014;2023-05-19T12:52:54;5.70;;;2.30;;
56161;SDS011;42045;52.986;6.014;2023-05-19T12:55:20;5.43;;;2.45;;
56161;SDS011;42045;52.986;6.014;2023-05-19T12:57:47;5.22;;;3.10;;
56161;SDS011;42045;52.986;6.014;2023-05-19T13:00:19;6.95;;;2.50;;
56161;SDS011;42045;52.986;6.014;2023-05-19T13:02:53;8.25;;;2.78;;
56161;SDS011;42045;52.986;6.014;2023-05-19T13:05:29;5.63;;;3.03;;
56161;SDS011;42045;52.986;6.014;2023-05-19T13:07:58;6.72;;;2.92;;
56161;SDS011;42045;52.986;6.014;2023-05-19T13:10:26;7.10;;;3.33;;
56161;SDS011;42045;52.986;6.014;2023-05-19T13:12:53;8.18;;;3.30;;
56161;SDS011;42045;52.986;6.014;2023-05-19T13:15:21;6.05;;;2.83;;
56161;SDS011;42045;52.986;6.014;2023-05-19T13:17:48;5.70;;;3.20;;
56161;SDS011;42045;52.986;6.014;2023-05-19T13:20:14;8.70;;;3.15;;
56161;SDS011;42045;52.986;6.014;2023-05-19T13:22:39;8.88;;;3.47;;
56161;SDS011;42045;52.986;6.014;2023-05-19T13:25:05;6.78;;;3.60;;
56161;SDS011;42045;52.986;6.014;2023-05-19T13:27:31;5.93;;;3.30;;
56161;SDS011;42045;52.986;6.014;2023-05-19T13:29:57;6.90;;;2.85;;
56161;SDS011;42045;52.986;6.014;2023-05-19T13:32:22;8.15;;;3.00;;
56161;SDS011;42045;52.986;6.014;2023-05-19T13:34:48;9.10;;;3.00;;
56161;SDS011;42045;52.986;6.014;2023-05-19T13:37:14;10.82;;;3.80;;
56161;SDS011;42045;52.986;6.014;2023-05-19T13:39:39;5.25;;;3.60;;
56161;SDS011;42045;52.986;6.014;2023-05-19T13:42:05;6.35;;;3.45;;
56161;SDS011;42045;52.986;6.014;2023-05-19T13:44:32;6.35;;;3.10;;
56161;SDS011;42045;52.986;6.014;2023-05-19T13:46:58;8.07;;;3.28;;
56161;SDS011;42045;52.986;6.014;2023-05-19T13:49:24;8.82;;;4.13;;
56161;SDS011;42045;52.986;6.014;2023-05-19T13:51:49;10.32;;;3.60;;
56161;SDS011;42045;52.986;6.014;2023-05-19T13:54:16;8.68;;;3.35;;
56161;SDS011;42045;52.986;6.014;2023-05-19T13:56:42;9.13;;;3.97;;
56161;SDS011;42045;52.986;6.014;2023-05-19T13:59:09;8.82;;;3.92;;
56161;SDS011;42045;52.986;6.014;2023-05-19T14:01:35;7.03;;;3.75;;
56161;SDS011;42045;52.986;6.014;2023-05-19T14:04:01;10.00;;;4.55;;
56161;SDS011;42045;52.986;6.014;2023-05-19T14:06:26;8.30;;;3.85;;
56161;SDS011;42045;52.986;6.014;2023-05-19T14:08:52;7.78;;;3.42;;
56161;SDS011;42045;52.986;6.014;2023-05-19T14:11:18;11.20;;;3.67;;
56161;SDS011;42045;52.986;6.014;2023-05-19T14:13:48;12.27;;;3.60;;
56161;SDS011;42045;52.986;6.014;2023-05-19T14:16:14;7.80;;;3.90;;
56161;SDS011;42045;52.986;6.014;2023-05-19T14:18:41;7.70;;;3.80;;
56161;SDS011;42045;52.986;6.014;2023-05-19T14:21:07;10.95;;;3.78;;
56161;SDS011;42045;52.986;6.014;2023-05-19T14:23:32;6.88;;;3.40;;
56161;SDS011;42045;52.986;6.014;2023-05-19T14:25:58;10.18;;;3.25;;
56161;SDS011;42045;52.986;6.014;2023-05-19T14:28:24;7.20;;;3.58;;
56161;SDS011;42045;52.986;6.014;2023-05-19T14:30:50;8.70;;;3.60;;
56161;SDS011;42045;52.986;6.014;2023-05-19T14:33:16;7.53;;;3.70;;
56161;SDS011;42045;52.986;6.014;2023-05-19T14:35:43;4.90;;;3.00;;
56161;SDS011;42045;52.986;6.014;2023-05-19T14:38:09;9.70;;;4.25;;
56161;SDS011;42045;52.986;6.014;2023-05-19T14:40:35;6.75;;;4.03;;
56161;SDS011;42045;52.986;6.014;2023-05-19T14:43:02;6.65;;;3.60;;
56161;SDS011;42045;52.986;6.014;2023-05-19T14:45:28;6.65;;;3.50;;
56161;SDS011;42045;52.986;6.014;2023-05-19T14:47:53;9.05;;;4.15;;
56161;SDS011;42045;52.986;6.014;2023-05-19T14:50:19;8.60;;;3.95;;
56161;SDS011;42045;52.986;6.014;2023-05-19T14:52:45;10.10;;;4.78;;
56161;SDS011;42045;52.986;6.014;2023-05-19T14:55:11;9.13;;;4.07;;
56161;SDS011;42045;52.986;6.014;2023-05-19T14:57:36;8.35;;;3.85;;
56161;SDS011;42045;52.986;6.014;2023-05-19T15:00:02;8.75;;;4.10;;
56161;SDS011;42045;52.986;6.014;2023-05-19T15:02:28;9.52;;;3.83;;
56161;SDS011;42045;52.986;6.014;2023-05-19T15:04:54;9.38;;;4.20;;
56161;SDS011;42045;52.986;6.014;2023-05-19T15:07:19;15.43;;;4.85;;
56161;SDS011;42045;52.986;6.014;2023-05-19T15:09:45;12.65;;;4.53;;
56161;SDS011;42045;52.986;6.014;2023-05-19T15:12:11;8.10;;;3.95;;
56161;SDS011;42045;52.986;6.014;2023-05-19T15:14:37;10.35;;;3.83;;
56161;SDS011;42045;52.986;6.014;2023-05-19T15:17:02;11.40;;;4.07;;
56161;SDS011;42045;52.986;6.014;2023-05-19T15:19:28;8.05;;;4.18;;